TimeMST,TemperatureF,Dew PointF,Humidity,Sea Level PressureIn,VisibilityMPH,Wind Direction,Wind SpeedMPH,Gust SpeedMPH,PrecipitationIn,Events,Conditions,WindDirDegrees,DateUTC
12:53 AM,43.0,37.9,82,29.96,10.0,SSE,4.6,-,0.01,Rain,Light Rain,150,2012-12-31 07:53:00
1:53 AM,43.0,39.0,86,29.96,10.0,SE,4.6,-,0.00,,Overcast,140,2012-12-31 08:53:00
2:53 AM,43.0,39.0,86,29.98,10.0,Calm,Calm,-,N/A,,Mostly Cloudy,0,2012-12-31 09:53:00
3:10 AM,42.8,39.2,87,30.00,10.0,SSE,4.6,-,N/A,,Mostly Cloudy,150,2012-12-31 10:10:00
3:28 AM,42.8,39.2,87,30.00,10.0,Calm,Calm,-,N/A,,Mostly Cloudy,0,2012-12-31 10:28:00
3:53 AM,43.0,37.9,82,29.99,10.0,SE,3.5,-,N/A,,Mostly Cloudy,130,2012-12-31 10:53:00
4:53 AM,42.1,37.9,85,30.00,10.0,ESE,3.5,-,N/A,,Mostly Cloudy,120,2012-12-31 11:53:00
5:53 AM,41.0,37.0,86,30.01,10.0,Calm,Calm,-,N/A,,Clear,0,2012-12-31 12:53:00
7:53 AM,39.9,37.0,89,30.07,10.0,Calm,Calm,-,N/A,,Mostly Cloudy,0,2012-12-31 14:53:00
8:53 AM,43.0,37.9,82,30.10,10.0,Calm,Calm,-,N/A,,Clear,0,2012-12-31 15:53:00
9:11 AM,44.6,39.2,81,30.11,10.0,Calm,Calm,-,N/A,,Mostly Cloudy,0,2012-12-31 16:11:00
9:53 AM,44.1,37.0,76,30.13,10.0,Calm,Calm,-,N/A,,Overcast,0,2012-12-31 16:53:00
10:04 AM,44.6,37.4,76,30.13,10.0,Calm,Calm,-,N/A,,Mostly Cloudy,0,2012-12-31 17:04:00
10:11 AM,44.6,37.4,76,30.13,10.0,Calm,Calm,-,N/A,,Scattered Clouds,0,2012-12-31 17:11:00
10:53 AM,46.0,36.0,68,30.13,10.0,Calm,Calm,-,N/A,,Scattered Clouds,0,2012-12-31 17:53:00
11:15 AM,46.4,35.6,66,30.14,10.0,Calm,Calm,-,N/A,,Mostly Cloudy,0,2012-12-31 18:15:00
11:53 AM,46.9,36.0,66,30.13,10.0,West,3.5,-,N/A,,Mostly Cloudy,270,2012-12-31 18:53:00
12:53 PM,48.9,34.0,56,30.11,10.0,SW,4.6,-,N/A,,Scattered Clouds,230,2012-12-31 19:53:00
1:53 PM,51.1,30.0,44,30.10,10.0,West,6.9,-,N/A,,Mostly Cloudy,260,2012-12-31 20:53:00
2:53 PM,53.1,30.9,43,30.10,10.0,SW,10.4,-,N/A,,Overcast,220,2012-12-31 21:53:00
3:53 PM,52.0,28.9,41,30.11,10.0,WSW,8.1,-,N/A,,Mostly Cloudy,240,2012-12-31 22:53:00
5:53 PM,50.0,28.0,43,30.13,10.0,Calm,Calm,-,N/A,,Clear,0,2013-01-01 00:53:00
6:53 PM,46.0,32.0,58,30.14,10.0,Calm,Calm,-,N/A,,Clear,0,2013-01-01 01:53:00
7:53 PM,46.0,28.0,50,30.16,10.0,Calm,Calm,-,N/A,,Clear,0,2013-01-01 02:53:00
8:53 PM,44.1,26.1,49,30.17,10.0,Calm,Calm,-,N/A,,Clear,0,2013-01-01 03:53:00
9:53 PM,43.0,26.1,51,30.19,10.0,Calm,Calm,-,N/A,,Clear,0,2013-01-01 04:53:00
10:53 PM,41.0,28.0,60,30.20,10.0,Calm,Calm,-,N/A,,Clear,0,2013-01-01 05:53:00
11:53 PM,39.0,28.0,65,30.21,10.0,Calm,Calm,-,N/A,,Clear,0,2013-01-01 06:53:00